createdAt,value
2022-11-12T00:02:12.398Z,3.90
2022-11-12T00:04:59.190Z,3.97
2022-11-12T00:07:45.867Z,4.13
2022-11-12T00:10:33.295Z,4.30
2022-11-12T00:13:20.461Z,4.37
2022-11-12T00:16:08.087Z,3.90
2022-11-12T00:18:56.092Z,4.27
2022-11-12T00:21:42.834Z,4.50
2022-11-12T00:24:29.448Z,5.37
2022-11-12T00:27:16.381Z,5.30
2022-11-12T00:30:03.613Z,4.37
2022-11-12T00:32:50.225Z,5.20
2022-11-12T00:35:38.236Z,4.83
2022-11-12T00:38:25.511Z,4.33
2022-11-12T00:41:12.985Z,3.90
2022-11-12T00:43:59.801Z,3.83
2022-11-12T00:46:46.708Z,3.97
2022-11-12T00:49:33.391Z,4.20
2022-11-12T00:52:21.357Z,3.67
2022-11-12T00:55:09.010Z,3.83
2022-11-12T00:57:55.669Z,3.40
2022-11-12T01:00:42.270Z,3.97
2022-11-12T01:03:29.600Z,4.10
2022-11-12T01:06:19.954Z,4.23
2022-11-12T01:09:08.351Z,4.03
2022-11-12T01:11:55.608Z,4.53
2022-11-12T01:14:42.539Z,4.60
2022-11-12T01:17:29.964Z,4.50
2022-11-12T01:20:17.134Z,4.10
2022-11-12T01:23:03.901Z,4.10
2022-11-12T01:25:51.990Z,4.00
2022-11-12T01:28:39.392Z,3.87
2022-11-12T01:31:28.923Z,3.50
2022-11-12T01:34:15.464Z,3.90
2022-11-12T01:37:02.083Z,3.40
2022-11-12T01:39:48.755Z,3.80
2022-11-12T01:42:36.632Z,3.20
2022-11-12T01:45:23.493Z,3.23
2022-11-12T01:48:26.213Z,3.60
2022-11-12T01:51:13.760Z,2.87
2022-11-12T01:54:04.853Z,2.83
2022-11-12T01:56:52.448Z,2.77
2022-11-12T01:59:45.248Z,3.00
2022-11-12T02:02:32.343Z,2.73
2022-11-12T02:05:20.203Z,2.83
2022-11-12T02:08:11.013Z,2.90
2022-11-12T02:10:57.747Z,2.87
2022-11-12T02:14:01.165Z,2.90
2022-11-12T02:16:50.506Z,2.60
2022-11-12T02:19:39.070Z,2.73
2022-11-12T02:22:28.050Z,3.00
2022-11-12T02:25:18.878Z,2.90
2022-11-12T02:28:08.534Z,2.83
2022-11-12T02:30:56.668Z,2.87
2022-11-12T02:33:43.435Z,3.13
2022-11-12T02:36:30.647Z,3.10
2022-11-12T02:39:19.374Z,2.77
2022-11-12T02:42:06.672Z,2.70
2022-11-12T02:44:53.925Z,3.23
2022-11-12T02:47:40.744Z,3.07
2022-11-12T02:50:27.467Z,3.07
2022-11-12T02:53:15.374Z,2.77
2022-11-12T02:56:04.372Z,3.10
2022-11-12T02:58:51.452Z,2.87
2022-11-12T03:01:38.371Z,3.30
2022-11-12T03:04:33.862Z,3.47
2022-11-12T03:07:21.302Z,2.90
2022-11-12T03:10:09.081Z,3.00
2022-11-12T03:12:59.254Z,2.73
2022-11-12T03:15:46.280Z,2.63
2022-11-12T03:18:33.152Z,2.97
2022-11-12T03:21:19.690Z,2.67
2022-11-12T03:24:06.911Z,2.67
2022-11-12T03:26:53.810Z,2.73
2022-11-12T03:29:41.831Z,2.93
2022-11-12T03:32:28.577Z,2.60
2022-11-12T03:35:15.806Z,2.00
2022-11-12T03:38:03.449Z,2.50
2022-11-12T03:40:50.572Z,2.80
2022-11-12T03:43:37.320Z,2.70
2022-11-12T03:46:25.820Z,4.37
2022-11-12T03:49:12.745Z,3.17
2022-11-12T03:51:59.693Z,4.17
2022-11-12T03:54:51.483Z,3.30
2022-11-12T03:57:38.305Z,2.33
2022-11-12T04:00:27.377Z,2.77
2022-11-12T04:03:15.480Z,3.20
2022-11-12T04:06:19.791Z,3.00
2022-11-12T04:09:06.892Z,3.70
2022-11-12T04:11:53.548Z,2.90
2022-11-12T04:14:40.144Z,3.13
2022-11-12T04:17:44.255Z,2.93
2022-11-12T04:20:49.922Z,2.73
2022-11-12T04:23:36.940Z,2.90
2022-11-12T04:26:25.348Z,2.30
2022-11-12T04:29:30.403Z,2.83
2022-11-12T04:32:20.003Z,2.83
2022-11-12T04:35:09.464Z,2.87
2022-11-12T04:37:58.891Z,2.93
2022-11-12T04:41:03.027Z,2.80
2022-11-12T04:44:07.353Z,3.13
2022-11-12T04:46:54.429Z,3.70
2022-11-12T04:49:41.194Z,3.90
2022-11-12T04:52:29.408Z,3.53
2022-11-12T04:55:18.033Z,3.27
2022-11-12T04:58:05.033Z,3.40
2022-11-12T05:00:52.644Z,3.10
2022-11-12T05:03:51.355Z,2.70
2022-11-12T05:06:53.903Z,3.07
2022-11-12T05:09:41.640Z,3.00
2022-11-12T05:12:29.692Z,3.23
2022-11-12T05:15:16.815Z,2.90
2022-11-12T05:18:03.499Z,3.33
2022-11-12T05:20:52.763Z,3.10
2022-11-12T05:23:39.348Z,2.53
2022-11-12T05:26:26.028Z,2.83
2022-11-12T05:29:14.417Z,2.47
2022-11-12T05:32:00.952Z,3.20
2022-11-12T05:34:47.804Z,2.80
2022-11-12T05:37:34.521Z,2.67
2022-11-12T05:40:21.108Z,2.50
2022-11-12T05:43:11.324Z,2.80
2022-11-12T05:45:59.464Z,2.73
2022-11-12T05:48:46.193Z,2.80
2022-11-12T05:51:33.347Z,2.83
2022-11-12T05:54:20.754Z,2.73
2022-11-12T05:57:07.736Z,2.60
2022-11-12T05:59:54.289Z,2.90
2022-11-12T06:02:43.118Z,2.90
2022-11-12T06:05:30.205Z,2.30
2022-11-12T06:08:17.383Z,3.00
2022-11-12T06:11:04.457Z,2.83
2022-11-12T06:13:51.272Z,2.60
2022-11-12T06:16:37.961Z,5.47
2022-11-12T06:19:26.337Z,8.93
2022-11-12T06:22:13.216Z,5.80
2022-11-12T06:25:00.194Z,6.03
2022-11-12T06:27:46.770Z,6.20
2022-11-12T06:30:33.576Z,6.27
2022-11-12T06:33:20.329Z,5.10
2022-11-12T06:36:09.500Z,4.60
2022-11-12T06:38:56.474Z,7.07
2022-11-12T06:41:43.204Z,4.83
2022-11-12T06:44:30.266Z,4.07
2022-11-12T06:47:17.376Z,3.47
2022-11-12T06:50:05.419Z,3.37
2022-11-12T06:52:59.761Z,3.70
2022-11-12T06:55:46.714Z,4.33
2022-11-12T06:58:33.891Z,4.00
2022-11-12T07:01:20.572Z,14.43
2022-11-12T07:04:08.013Z,15.73
2022-11-12T07:07:10.860Z,10.73
2022-11-12T07:09:59.232Z,8.23
2022-11-12T07:12:49.136Z,7.00
2022-11-12T07:15:39.836Z,23.53
2022-11-12T07:18:27.143Z,38.93
2022-11-12T07:21:17.678Z,7.70
2022-11-12T07:24:04.461Z,3.47
2022-11-12T07:26:52.547Z,3.50
2022-11-12T07:29:48.429Z,3.00
2022-11-12T07:32:41.621Z,3.03
2022-11-12T07:35:30.799Z,2.90
2022-11-12T07:38:17.672Z,3.90
2022-11-12T07:41:06.648Z,3.83
2022-11-12T07:43:55.492Z,4.17
2022-11-12T07:46:42.260Z,3.10
2022-11-12T07:49:28.958Z,3.40
2022-11-12T07:52:15.751Z,3.80
2022-11-12T07:55:02.376Z,4.53
2022-11-12T07:57:49.085Z,4.33
2022-11-12T08:00:37.266Z,4.33
2022-11-12T08:03:24.795Z,3.80
2022-11-12T08:06:11.279Z,3.97
2022-11-12T08:08:59.757Z,3.80
2022-11-12T08:11:46.444Z,3.60
2022-11-12T08:14:33.449Z,3.43
2022-11-12T08:17:23.736Z,3.97
2022-11-12T08:20:13.002Z,3.73
2022-11-12T08:23:01.888Z,3.93
2022-11-12T08:25:48.939Z,4.33
2022-11-12T08:28:37.896Z,4.20
2022-11-12T08:31:25.152Z,3.60
2022-11-12T08:34:15.161Z,3.97
2022-11-12T08:37:04.372Z,3.83
2022-11-12T08:39:51.077Z,4.00
2022-11-12T08:42:37.665Z,5.63
2022-11-12T08:45:24.542Z,4.70
2022-11-12T08:48:14.278Z,5.80
2022-11-12T08:51:05.209Z,4.90
2022-11-12T08:53:51.987Z,5.77
2022-11-12T08:56:39.717Z,4.90
2022-11-12T08:59:26.542Z,4.77
2022-11-12T09:02:14.504Z,4.67
2022-11-12T09:05:31.108Z,11.53
2022-11-12T09:08:24.170Z,12.30
2022-11-12T09:11:11.602Z,6.70
2022-11-12T09:13:58.590Z,6.33
2022-11-12T09:16:45.540Z,8.53
2022-11-12T09:19:32.285Z,14.23
2022-11-12T09:22:19.001Z,8.67
2022-11-12T09:25:08.735Z,5.33
2022-11-12T09:27:55.591Z,11.37
2022-11-12T09:30:46.538Z,8.17
2022-11-12T09:33:35.000Z,5.00
2022-11-12T09:36:21.859Z,9.93
2022-11-12T09:39:08.617Z,6.87
2022-11-12T09:42:01.982Z,9.80
2022-11-12T09:44:57.519Z,23.77
2022-11-12T09:47:49.968Z,17.70
2022-11-12T09:50:44.091Z,24.40
2022-11-12T09:53:42.977Z,33.97
2022-11-12T09:56:31.471Z,15.73
2022-11-12T09:59:20.251Z,16.07
2022-11-12T10:02:25.629Z,9.03
2022-11-12T10:05:27.491Z,6.43
2022-11-12T10:08:39.326Z,6.87
2022-11-12T10:12:13.880Z,6.87
2022-11-12T10:16:04.102Z,9.00
2022-11-12T10:19:08.901Z,16.03
2022-11-12T10:22:08.462Z,9.47
2022-11-12T10:24:56.816Z,5.30
2022-11-12T10:27:44.935Z,9.80
2022-11-12T10:30:33.544Z,8.10
2022-11-12T10:33:21.228Z,6.03
2022-11-12T10:36:27.221Z,6.60
2022-11-12T10:39:37.151Z,6.73
2022-11-12T10:42:24.566Z,6.33
2022-11-12T10:45:22.963Z,7.27
2022-11-12T10:48:27.872Z,6.80
2022-11-12T10:51:26.910Z,7.67
2022-11-12T10:54:31.303Z,5.93
2022-11-12T10:57:22.753Z,5.67
2022-11-12T11:00:19.900Z,7.10
2022-11-12T11:03:36.293Z,5.97
2022-11-12T11:06:27.024Z,6.13
2022-11-12T11:09:20.625Z,6.07
2022-11-12T11:12:24.644Z,6.10
2022-11-12T11:15:21.618Z,5.27
2022-11-12T11:18:12.080Z,6.20
2022-11-12T11:21:10.236Z,6.03
2022-11-12T11:24:07.057Z,7.10
2022-11-12T11:27:03.331Z,6.10
2022-11-12T11:30:04.960Z,5.70
2022-11-12T11:33:25.305Z,8.40
2022-11-12T11:36:25.444Z,22.23
2022-11-12T11:39:23.545Z,16.33
2022-11-12T11:42:32.324Z,20.10
2022-11-12T11:45:26.992Z,34.23
2022-11-12T11:48:27.927Z,39.80
2022-11-12T11:51:37.801Z,36.37
2022-11-12T11:55:02.197Z,32.93
2022-11-12T11:57:59.697Z,13.93
2022-11-12T12:00:57.592Z,14.47
2022-11-12T12:04:03.962Z,8.30
2022-11-12T12:07:15.300Z,12.73
2022-11-12T12:10:09.604Z,11.13
2022-11-12T12:13:08.802Z,5.93
2022-11-12T12:16:18.745Z,7.10
2022-11-12T12:19:17.791Z,15.93
2022-11-12T12:22:14.425Z,7.20
2022-11-12T12:25:10.851Z,6.57
2022-11-12T12:28:05.983Z,7.77
2022-11-12T12:30:55.856Z,17.33
2022-11-12T12:33:49.819Z,8.63
2022-11-12T12:36:39.287Z,7.33
2022-11-12T12:39:42.296Z,6.90
2022-11-12T12:42:39.161Z,7.43
2022-11-12T12:45:43.054Z,7.00
2022-11-12T12:48:33.136Z,6.70
2022-11-12T12:51:20.347Z,11.83
2022-11-12T12:54:58.644Z,17.67
2022-11-12T12:57:46.148Z,7.73
2022-11-12T13:00:40.344Z,8.40
2022-11-12T13:03:51.918Z,7.63
2022-11-12T13:06:53.049Z,6.57
2022-11-12T13:09:39.991Z,6.97
2022-11-12T13:13:05.859Z,8.23
2022-11-12T13:15:56.285Z,9.40
2022-11-12T13:19:02.015Z,6.43
2022-11-12T13:21:48.529Z,6.47
2022-11-12T13:25:09.279Z,6.97
2022-11-12T13:28:14.325Z,6.70
2022-11-12T13:31:03.587Z,5.97
2022-11-12T13:33:50.934Z,7.60
2022-11-12T13:36:37.987Z,6.83
2022-11-12T13:39:25.209Z,7.67
2022-11-12T13:42:33.212Z,6.73
2022-11-12T13:45:25.527Z,6.17
2022-11-12T13:48:18.777Z,7.57
2022-11-12T13:51:13.969Z,6.30
2022-11-12T13:54:01.329Z,6.33
2022-11-12T13:56:48.293Z,6.63
2022-11-12T13:59:34.844Z,5.90
2022-11-12T14:02:27.716Z,5.63
2022-11-12T14:05:17.914Z,6.30
2022-11-12T14:08:37.717Z,6.57
2022-11-12T14:11:52.595Z,7.27
2022-11-12T14:15:03.244Z,6.37
2022-11-12T14:18:02.847Z,7.63
2022-11-12T14:20:50.490Z,7.30
2022-11-12T14:23:39.360Z,6.50
2022-11-12T14:26:37.440Z,8.87
2022-11-12T14:29:24.147Z,6.90
2022-11-12T14:32:11.149Z,21.57
2022-11-12T14:34:58.977Z,11.80
2022-11-12T14:37:51.671Z,12.73
2022-11-12T14:40:44.501Z,10.07
2022-11-12T14:43:39.529Z,8.30
2022-11-12T14:46:30.046Z,13.60
2022-11-12T14:49:23.395Z,9.90
2022-11-12T14:52:18.683Z,18.40
2022-11-12T14:55:13.584Z,9.63
2022-11-12T14:58:02.500Z,8.20
2022-11-12T15:00:52.241Z,8.97
2022-11-12T15:03:52.685Z,7.90
2022-11-12T15:06:40.976Z,8.27
2022-11-12T15:09:38.471Z,7.70
2022-11-12T15:12:29.920Z,8.10
2022-11-12T15:15:22.698Z,8.90
2022-11-12T15:18:19.325Z,8.77
2022-11-12T15:21:15.076Z,12.73
2022-11-12T15:24:08.957Z,14.40
2022-11-12T15:26:59.544Z,12.67
2022-11-12T15:29:46.573Z,9.67
2022-11-12T15:32:35.476Z,8.17
2022-11-12T15:35:43.635Z,8.27
2022-11-12T15:38:36.069Z,8.37
2022-11-12T15:41:27.120Z,7.63
2022-11-12T15:44:15.859Z,8.00
2022-11-12T15:47:03.131Z,10.00
2022-11-12T15:49:51.654Z,10.67
2022-11-12T15:52:38.733Z,8.83
2022-11-12T15:55:25.570Z,10.47
2022-11-12T15:58:18.791Z,9.83
2022-11-12T16:01:07.637Z,12.33
2022-11-12T16:03:54.735Z,9.80
2022-11-12T16:06:41.671Z,15.30
2022-11-12T16:09:28.216Z,13.03
2022-11-12T16:12:16.231Z,10.57
2022-11-12T16:15:03.494Z,9.53
2022-11-12T16:17:52.202Z,8.30
2022-11-12T16:20:39.798Z,9.57
2022-11-12T16:23:27.012Z,8.10
2022-11-12T16:26:18.364Z,8.57
2022-11-12T16:29:05.119Z,52.57
2022-11-12T16:31:57.810Z,28.33
2022-11-12T16:34:45.731Z,37.87
2022-11-12T16:37:33.625Z,66.43
2022-11-12T16:40:23.525Z,30.07
2022-11-12T16:43:10.239Z,28.00
2022-11-12T16:45:56.906Z,18.70
2022-11-12T16:48:43.581Z,11.00
2022-11-12T16:51:31.559Z,9.73
2022-11-12T16:54:18.484Z,8.20
2022-11-12T16:57:05.443Z,8.63
2022-11-12T16:59:52.761Z,17.03
2022-11-12T17:02:44.518Z,20.80
2022-11-12T17:05:34.062Z,37.17
2022-11-12T17:08:22.350Z,16.17
2022-11-12T17:11:10.592Z,9.50
2022-11-12T17:13:57.336Z,7.87
2022-11-12T17:16:44.981Z,9.60
2022-11-12T17:19:31.901Z,8.37
2022-11-12T17:22:20.164Z,9.33
2022-11-12T17:25:09.927Z,7.83
2022-11-12T17:27:56.885Z,8.47
2022-11-12T17:30:43.594Z,11.17
2022-11-12T17:33:30.559Z,11.20
2022-11-12T17:36:19.767Z,11.00
2022-11-12T17:39:06.724Z,9.00
2022-11-12T17:41:54.844Z,8.23
2022-11-12T17:44:42.256Z,10.23
2022-11-12T17:47:29.454Z,8.43
2022-11-12T17:50:16.829Z,8.40
2022-11-12T17:53:03.454Z,8.60
2022-11-12T17:55:57.174Z,7.23
2022-11-12T17:58:47.234Z,8.10
2022-11-12T18:01:35.242Z,7.97
2022-11-12T18:04:23.751Z,8.17
2022-11-12T18:07:11.088Z,7.07
2022-11-12T18:09:58.130Z,7.10
2022-11-12T18:12:45.623Z,7.63
2022-11-12T18:15:33.876Z,8.03
2022-11-12T18:18:20.789Z,11.60
2022-11-12T18:21:07.539Z,21.80
2022-11-12T18:23:54.877Z,16.93
2022-11-12T18:26:41.722Z,19.17
2022-11-12T18:29:28.361Z,16.87
2022-11-12T18:32:16.452Z,15.73
2022-11-12T18:35:03.276Z,9.53
2022-11-12T18:37:49.941Z,7.87
2022-11-12T18:40:36.667Z,9.00
2022-11-12T18:43:23.272Z,9.30
2022-11-12T18:46:11.413Z,34.43
2022-11-12T18:48:59.461Z,20.40
2022-11-12T18:51:46.150Z,15.40
2022-11-12T18:54:32.816Z,9.13
2022-11-12T18:57:19.665Z,10.67
2022-11-12T19:00:07.314Z,9.30
2022-11-12T19:02:54.037Z,8.47
2022-11-12T19:05:42.429Z,7.30
2022-11-12T19:08:29.964Z,7.80
2022-11-12T19:11:21.345Z,7.83
2022-11-12T19:14:08.207Z,8.43
2022-11-12T19:16:54.811Z,7.03
2022-11-12T19:19:41.540Z,8.17
2022-11-12T19:22:29.600Z,7.33
2022-11-12T19:25:16.610Z,7.07
2022-11-12T19:28:03.698Z,6.67
2022-11-12T19:30:56.614Z,6.33
2022-11-12T19:33:43.835Z,6.90
2022-11-12T19:36:30.819Z,7.13
2022-11-12T19:39:19.100Z,6.90
2022-11-12T19:42:07.273Z,8.70
2022-11-12T19:44:54.241Z,8.10
2022-11-12T19:47:42.267Z,10.60
2022-11-12T19:50:30.693Z,11.93
2022-11-12T19:53:17.740Z,14.17
2022-11-12T19:56:07.734Z,14.90
2022-11-12T19:58:55.076Z,9.93
2022-11-12T20:01:42.262Z,8.33
2022-11-12T20:04:29.526Z,11.20
2022-11-12T20:07:16.292Z,61.53
2022-11-12T20:10:03.225Z,39.37
2022-11-12T20:12:51.280Z,51.33
2022-11-12T20:15:39.514Z,17.27
2022-11-12T20:18:26.657Z,17.70
2022-11-12T20:21:14.375Z,10.17
2022-11-12T20:24:02.503Z,18.23
2022-11-12T20:26:49.485Z,10.27
2022-11-12T20:29:37.789Z,20.63
2022-11-12T20:32:24.774Z,16.00
2022-11-12T20:35:19.280Z,24.77
2022-11-12T20:38:08.723Z,14.00
2022-11-12T20:41:00.006Z,11.33
2022-11-12T20:43:46.903Z,10.03
2022-11-12T20:46:35.343Z,10.60
2022-11-12T20:49:22.298Z,9.97
2022-11-12T20:52:09.230Z,8.63
2022-11-12T20:54:55.837Z,11.33
2022-11-12T20:57:42.796Z,7.43
2022-11-12T21:00:29.517Z,12.10
2022-11-12T21:03:19.849Z,8.00
2022-11-12T21:06:09.911Z,8.03
2022-11-12T21:08:59.711Z,7.37
2022-11-12T21:11:46.310Z,6.90
2022-11-12T21:14:33.048Z,7.20
2022-11-12T21:17:19.811Z,6.67
2022-11-12T21:20:08.788Z,7.03
2022-11-12T21:22:55.902Z,7.50
2022-11-12T21:25:43.111Z,7.10
2022-11-12T21:28:30.086Z,7.53
2022-11-12T21:31:19.640Z,47.17
2022-11-12T21:34:07.088Z,40.73
2022-11-12T21:36:55.813Z,19.90
2022-11-12T21:39:42.424Z,13.37
2022-11-12T21:42:29.129Z,22.53
2022-11-12T21:45:16.217Z,27.90
2022-11-12T21:48:02.769Z,36.57
2022-11-12T21:50:49.470Z,24.93
2022-11-12T21:53:37.568Z,13.03
2022-11-12T21:56:25.118Z,9.53
2022-11-12T21:59:11.760Z,9.83
2022-11-12T22:01:58.355Z,9.57
2022-11-12T22:04:45.059Z,20.03
2022-11-12T22:07:31.953Z,12.93
2022-11-12T22:10:20.095Z,12.93
2022-11-12T22:13:25.746Z,11.47
2022-11-12T22:16:15.921Z,6.97
2022-11-12T22:19:03.005Z,7.70
2022-11-12T22:21:49.634Z,11.07
2022-11-12T22:24:36.301Z,9.70
2022-11-12T22:27:25.673Z,7.93
2022-11-12T22:30:13.538Z,7.60
2022-11-12T22:33:01.670Z,7.50
2022-11-12T22:35:48.622Z,6.70
2022-11-12T22:39:00.014Z,6.60
2022-11-12T22:41:46.840Z,7.73
2022-11-12T22:44:35.097Z,7.57
2022-11-12T22:47:22.113Z,8.03
2022-11-12T22:50:10.929Z,8.10
2022-11-12T22:52:57.734Z,7.00
2022-11-12T22:55:44.312Z,7.67
2022-11-12T22:58:31.487Z,7.33
2022-11-12T23:01:24.813Z,15.67
2022-11-12T23:04:16.607Z,14.57
2022-11-12T23:07:11.150Z,10.57
2022-11-12T23:09:58.190Z,8.93
2022-11-12T23:12:44.856Z,7.37
2022-11-12T23:15:31.958Z,7.40
2022-11-12T23:18:20.189Z,11.47
2022-11-12T23:21:12.024Z,15.67
2022-11-12T23:23:59.190Z,13.67
2022-11-12T23:26:45.695Z,9.57
2022-11-12T23:29:32.332Z,9.00
2022-11-12T23:32:18.796Z,8.40
2022-11-12T23:35:08.104Z,11.10
2022-11-12T23:37:54.978Z,14.80
2022-11-12T23:40:41.781Z,32.27
2022-11-12T23:43:28.760Z,12.67
2022-11-12T23:46:15.376Z,24.93
2022-11-12T23:49:02.020Z,9.57
2022-11-12T23:51:50.260Z,9.50
2022-11-12T23:54:37.076Z,14.87
2022-11-12T23:57:23.646Z,15.33
